createdAt,value
2018-03-19T00:00:50.097Z,95881.02
2018-03-19T00:03:17.628Z,95880.93
2018-03-19T00:05:45.028Z,95883.03
2018-03-19T00:08:12.471Z,95882.67
2018-03-19T00:10:39.989Z,95882.52
2018-03-19T00:13:07.662Z,95884.30
2018-03-19T00:15:35.058Z,95886.95
2018-03-19T00:18:02.473Z,95888.29
2018-03-19T00:20:30.000Z,95888.55
2018-03-19T00:22:57.433Z,95892.58
2018-03-19T00:25:24.829Z,95900.55
2018-03-19T00:27:52.521Z,95898.69
2018-03-19T00:30:19.950Z,95893.41
2018-03-19T00:32:47.357Z,95900.73
2018-03-19T00:35:14.787Z,95898.52
2018-03-19T00:37:42.200Z,95897.36
2018-03-19T00:40:09.628Z,95901.53
2018-03-19T00:42:37.096Z,95897.12
2018-03-19T00:45:04.545Z,95903.91
2018-03-19T00:47:32.015Z,95905.09
2018-03-19T00:49:59.486Z,95904.97
2018-03-19T00:52:26.900Z,95908.28
2018-03-19T00:54:54.346Z,95907.94
2018-03-19T00:57:21.758Z,95915.73
2018-03-19T00:59:49.258Z,95922.58
2018-03-19T01:02:16.714Z,95919.86
2018-03-19T01:04:44.537Z,95912.99
2018-03-19T01:07:12.018Z,95918.44
2018-03-19T01:09:39.494Z,95925.35
2018-03-19T01:12:06.912Z,95923.37
2018-03-19T01:14:34.348Z,95929.76
2018-03-19T01:17:01.826Z,95932.72
2018-03-19T01:19:29.230Z,95934.42
2018-03-19T01:21:56.705Z,95935.09
2018-03-19T01:24:24.176Z,95926.23
2018-03-19T01:26:51.644Z,95928.41
2018-03-19T01:29:19.140Z,95933.49
2018-03-19T01:31:46.609Z,95930.35
2018-03-19T01:34:14.080Z,95932.33
2018-03-19T01:36:41.511Z,95937.41
2018-03-19T01:39:09.012Z,95937.73
2018-03-19T01:41:36.452Z,95929.81
2018-03-19T01:44:03.933Z,95936.96
2018-03-19T01:46:31.389Z,95938.34
2018-03-19T01:48:58.837Z,95943.12
2018-03-19T01:51:26.318Z,95947.70
2018-03-19T01:53:53.786Z,95940.98
2018-03-19T01:56:21.192Z,95947.11
2018-03-19T01:58:48.612Z,95947.73
2018-03-19T02:01:16.013Z,95945.02
2018-03-19T02:03:43.635Z,95949.64
2018-03-19T02:06:11.094Z,95952.98
2018-03-19T02:08:38.558Z,95945.39
2018-03-19T02:11:05.950Z,95944.53
2018-03-19T02:13:33.362Z,95951.30
2018-03-19T02:16:00.785Z,95952.51
2018-03-19T02:18:28.222Z,95954.25
2018-03-19T02:20:55.620Z,95954.66
2018-03-19T02:23:23.045Z,95951.75
2018-03-19T02:25:50.473Z,95957.69
2018-03-19T02:28:17.881Z,95961.28
2018-03-19T02:30:45.309Z,95961.26
2018-03-19T02:33:12.742Z,95965.67
2018-03-19T02:35:40.173Z,95957.86
2018-03-19T02:38:07.707Z,95961.86
2018-03-19T02:40:35.189Z,95960.81
2018-03-19T02:43:02.587Z,95963.48
2018-03-19T02:45:29.994Z,95964.68
2018-03-19T02:47:57.425Z,95963.28
2018-03-19T02:50:24.858Z,95965.36
2018-03-19T02:52:52.279Z,95964.50
2018-03-19T02:55:19.756Z,95961.08
2018-03-19T02:57:47.552Z,95974.38
2018-03-19T03:00:15.000Z,95971.36
2018-03-19T03:02:42.430Z,95965.62
2018-03-19T03:05:09.877Z,95966.73
2018-03-19T03:07:37.345Z,95966.27
2018-03-19T03:10:05.193Z,95971.38
2018-03-19T03:12:32.659Z,95968.05
2018-03-19T03:15:00.119Z,95972.26
2018-03-19T03:17:27.577Z,95971.47
2018-03-19T03:19:55.048Z,95971.20
2018-03-19T03:22:22.473Z,95979.59
2018-03-19T03:24:49.970Z,95972.41
2018-03-19T03:27:17.380Z,95979.91
2018-03-19T03:29:44.833Z,95980.42
2018-03-19T03:32:12.250Z,95980.77
2018-03-19T03:34:39.714Z,95982.91
2018-03-19T03:37:07.903Z,95979.38
2018-03-19T03:39:35.339Z,95983.25
2018-03-19T03:42:02.731Z,95986.55
2018-03-19T03:44:30.176Z,95992.28
2018-03-19T03:46:57.596Z,95983.13
2018-03-19T03:49:25.019Z,95990.81
2018-03-19T03:51:52.444Z,95985.43
2018-03-19T03:54:25.539Z,95994.95
2018-03-19T03:56:52.989Z,95985.30
2018-03-19T03:59:20.388Z,95988.88
2018-03-19T04:01:47.822Z,95990.68
2018-03-19T04:04:15.283Z,95987.67
2018-03-19T04:06:42.712Z,95989.36
2018-03-19T04:09:10.671Z,95990.17
2018-03-19T04:11:38.071Z,95990.09
2018-03-19T04:14:05.537Z,95992.81
2018-03-19T04:16:32.964Z,95986.88
2018-03-19T04:19:00.461Z,95988.75
2018-03-19T04:21:28.588Z,95992.33
2018-03-19T04:23:55.989Z,95990.59
2018-03-19T04:26:23.864Z,95991.08
2018-03-19T04:28:51.260Z,95990.59
2018-03-19T04:31:18.737Z,95987.60
2018-03-19T04:33:46.151Z,95987.73
2018-03-19T04:36:13.592Z,95982.96
2018-03-19T04:38:41.101Z,95981.12
2018-03-19T04:41:08.571Z,95980.91
2018-03-19T04:43:36.010Z,95983.86
2018-03-19T04:46:03.550Z,95978.81
2018-03-19T04:48:30.933Z,95984.78
2018-03-19T04:50:58.394Z,95982.39
2018-03-19T04:53:25.820Z,95984.64
2018-03-19T04:55:53.252Z,95985.03
2018-03-19T04:58:20.689Z,95982.61
2018-03-19T05:00:48.132Z,95978.73
2018-03-19T05:03:15.550Z,95980.34
2018-03-19T05:05:42.978Z,95979.45
2018-03-19T05:08:10.433Z,95983.84
2018-03-19T05:10:37.849Z,95976.06
2018-03-19T05:13:05.279Z,95978.31
2018-03-19T05:15:32.758Z,95985.22
2018-03-19T05:18:00.221Z,95984.81
2018-03-19T05:20:27.712Z,95976.94
2018-03-19T05:22:55.173Z,95975.98
2018-03-19T05:25:22.629Z,95977.42
2018-03-19T05:27:50.021Z,95978.44
2018-03-19T05:30:17.429Z,95974.52
2018-03-19T05:32:44.867Z,95979.00
2018-03-19T05:35:12.367Z,95979.26
2018-03-19T05:37:39.745Z,95987.27
2018-03-19T05:40:07.144Z,95984.05
2018-03-19T05:42:34.647Z,95979.33
2018-03-19T05:45:02.074Z,95986.40
2018-03-19T05:47:29.553Z,95986.06
2018-03-19T05:49:57.041Z,95987.15
2018-03-19T05:52:24.545Z,95992.41
2018-03-19T05:54:51.981Z,95981.20
2018-03-19T05:57:19.397Z,95983.52
2018-03-19T05:59:47.054Z,95987.28
2018-03-19T06:02:14.515Z,95990.74
2018-03-19T06:04:41.974Z,95996.19
2018-03-19T06:07:09.373Z,95995.75
2018-03-19T06:09:36.853Z,95992.80
2018-03-19T06:12:04.244Z,95990.72
2018-03-19T06:14:31.687Z,95999.26
2018-03-19T06:16:59.113Z,95989.89
2018-03-19T06:19:26.578Z,95990.30
2018-03-19T06:21:54.125Z,95984.67
2018-03-19T06:24:21.554Z,95991.23
2018-03-19T06:26:49.155Z,95992.25
2018-03-19T06:29:16.585Z,95990.94
2018-03-19T06:31:44.005Z,95995.19
2018-03-19T06:34:11.488Z,95990.11
2018-03-19T06:36:39.044Z,95992.05
2018-03-19T06:39:06.511Z,95991.69
2018-03-19T06:41:34.128Z,95995.25
2018-03-19T06:44:01.652Z,95992.80
2018-03-19T06:46:29.311Z,95985.71
2018-03-19T06:48:57.474Z,95991.37
2018-03-19T06:51:24.945Z,95996.08
2018-03-19T06:53:52.379Z,95999.37
2018-03-19T06:56:19.825Z,95998.41
2018-03-19T06:58:47.290Z,95999.57
2018-03-19T07:01:14.731Z,96002.56
2018-03-19T07:03:42.334Z,96004.74
2018-03-19T07:06:09.806Z,95999.47
2018-03-19T07:08:37.238Z,96010.55
2018-03-19T07:11:04.644Z,96015.61
2018-03-19T07:13:32.470Z,96008.22
2018-03-19T07:15:59.921Z,96011.56
2018-03-19T07:18:27.395Z,96013.50
2018-03-19T07:20:54.906Z,96012.25
2018-03-19T07:23:22.332Z,96011.50
2018-03-19T07:25:49.792Z,96017.56
2018-03-19T07:28:17.253Z,96011.02
2018-03-19T07:30:44.672Z,96014.15
2018-03-19T07:33:12.203Z,96002.97
2018-03-19T07:35:39.661Z,96004.88
2018-03-19T07:38:07.086Z,96009.25
2018-03-19T07:40:34.533Z,95999.52
2018-03-19T07:43:02.063Z,96007.87
2018-03-19T07:45:29.539Z,96006.55
2018-03-19T07:47:57.040Z,96006.04
2018-03-19T07:50:24.426Z,95999.05
2018-03-19T07:52:51.870Z,96000.36
2018-03-19T07:55:19.429Z,96003.23
2018-03-19T07:57:46.870Z,96004.83
2018-03-19T08:00:14.292Z,96004.77
2018-03-19T08:02:41.685Z,96005.67
2018-03-19T08:05:09.144Z,96001.27
2018-03-19T08:07:36.603Z,95995.72
2018-03-19T08:10:04.101Z,95992.63
2018-03-19T08:12:31.558Z,96003.81
2018-03-19T08:14:58.965Z,96000.14
2018-03-19T08:17:26.401Z,96002.31
2018-03-19T08:19:54.302Z,95999.95
2018-03-19T08:22:21.753Z,95990.34
2018-03-19T08:24:49.863Z,95998.03
2018-03-19T08:27:17.334Z,95984.19
2018-03-19T08:29:44.753Z,95982.61
2018-03-19T08:32:12.234Z,95985.45
2018-03-19T08:34:40.565Z,95990.23
2018-03-19T08:37:08.067Z,95993.11
2018-03-19T08:39:35.546Z,95984.19
2018-03-19T08:42:03.054Z,95987.80
2018-03-19T08:44:30.549Z,95995.45
2018-03-19T08:46:58.062Z,95981.84
2018-03-19T08:49:25.634Z,95983.40
2018-03-19T08:51:53.038Z,95992.38
2018-03-19T08:54:21.448Z,95989.25
2018-03-19T08:56:49.521Z,95982.59
2018-03-19T08:59:17.179Z,95984.22
2018-03-19T09:01:44.652Z,95979.20
2018-03-19T09:04:12.151Z,95978.17
2018-03-19T09:06:39.600Z,95974.19
2018-03-19T09:09:07.077Z,95979.35
2018-03-19T09:11:34.886Z,95984.45
2018-03-19T09:14:02.285Z,95985.73
2018-03-19T09:16:29.739Z,95989.17
2018-03-19T09:18:57.190Z,95985.22
2018-03-19T09:21:24.778Z,95988.83
2018-03-19T09:23:52.261Z,95988.72
2018-03-19T09:26:19.747Z,95983.47
2018-03-19T09:28:47.473Z,95986.75
2018-03-19T09:31:15.112Z,95986.26
2018-03-19T09:33:42.548Z,95987.44
2018-03-19T09:36:09.973Z,95986.95
2018-03-19T09:38:37.439Z,95988.86
2018-03-19T09:41:04.914Z,95984.67
2018-03-19T09:43:32.358Z,95981.77
2018-03-19T09:45:59.792Z,95984.02
2018-03-19T09:48:27.238Z,95987.80
2018-03-19T09:50:54.717Z,95985.47
2018-03-19T09:53:22.186Z,95986.68
2018-03-19T09:55:49.875Z,95986.55
2018-03-19T09:58:17.326Z,95985.41
2018-03-19T10:00:44.916Z,95989.40
2018-03-19T10:03:12.367Z,95983.78
2018-03-19T10:05:39.815Z,95986.26
2018-03-19T10:08:07.529Z,95981.97
2018-03-19T10:10:34.985Z,95992.26
2018-03-19T10:13:02.552Z,95978.44
2018-03-19T10:15:31.315Z,95986.02
2018-03-19T10:17:58.756Z,95984.76
2018-03-19T10:20:26.246Z,95993.02
2018-03-19T10:22:53.849Z,95987.55
2018-03-19T10:25:21.318Z,95990.33
2018-03-19T10:27:48.857Z,95994.88
2018-03-19T10:30:16.888Z,95995.00
2018-03-19T10:32:44.323Z,95998.98
2018-03-19T10:35:11.820Z,95994.64
2018-03-19T10:37:39.265Z,95995.10
2018-03-19T10:40:06.729Z,95991.65
2018-03-19T10:42:34.193Z,95988.48
2018-03-19T10:45:01.626Z,95991.67
2018-03-19T10:47:29.105Z,95994.98
2018-03-19T10:49:56.675Z,95989.22
2018-03-19T10:52:24.119Z,95988.31
2018-03-19T10:54:51.585Z,95987.38
2018-03-19T10:57:19.024Z,95983.80
2018-03-19T10:59:46.734Z,95978.89
2018-03-19T11:02:16.174Z,95979.55
2018-03-19T11:04:49.147Z,95981.10
2018-03-19T11:07:22.096Z,95978.23
2018-03-19T11:09:49.542Z,95972.47
2018-03-19T11:12:17.039Z,95972.84
2018-03-19T11:14:44.473Z,95965.25
2018-03-19T11:17:12.945Z,95968.63
2018-03-19T11:19:40.428Z,95972.30
2018-03-19T11:22:07.934Z,95970.98
2018-03-19T11:24:35.415Z,95976.70
2018-03-19T11:27:02.849Z,95969.90
2018-03-19T11:29:30.715Z,95971.51
2018-03-19T11:31:58.236Z,95968.33
2018-03-19T11:34:25.712Z,95964.59
2018-03-19T11:36:53.350Z,95959.98
2018-03-19T11:39:20.790Z,95956.56
2018-03-19T11:41:48.262Z,95958.10
2018-03-19T11:44:15.682Z,95945.63
2018-03-19T11:46:43.145Z,95953.83
2018-03-19T11:49:10.970Z,95953.02
2018-03-19T11:51:38.449Z,95947.03
2018-03-19T11:54:06.035Z,95933.91
2018-03-19T11:56:33.450Z,95929.63
2018-03-19T11:59:00.982Z,95935.23
2018-03-19T12:01:28.454Z,95937.81
2018-03-19T12:03:56.197Z,95934.25
2018-03-19T12:06:23.789Z,95928.55
2018-03-19T12:08:51.488Z,95929.67
2018-03-19T12:11:18.997Z,95926.05
2018-03-19T12:13:46.413Z,95930.16
2018-03-19T12:16:13.849Z,95928.32
2018-03-19T12:18:41.286Z,95917.45
2018-03-19T12:21:08.943Z,95924.77
2018-03-19T12:23:37.155Z,95922.13
2018-03-19T12:26:04.699Z,95918.70
2018-03-19T12:28:32.277Z,95917.61
2018-03-19T12:30:59.684Z,95923.19
2018-03-19T12:33:27.227Z,95916.73
2018-03-19T12:35:54.714Z,95910.58
2018-03-19T12:38:22.219Z,95913.59
2018-03-19T12:40:49.649Z,95908.16
2018-03-19T12:43:17.100Z,95905.47
2018-03-19T12:45:44.517Z,95905.39
2018-03-19T12:48:12.202Z,95904.02
2018-03-19T12:50:40.424Z,95899.44
2018-03-19T12:53:07.849Z,95909.09
2018-03-19T12:55:35.342Z,95909.66
2018-03-19T12:58:02.846Z,95895.09
2018-03-19T13:00:30.269Z,95900.87
2018-03-19T13:02:57.704Z,95899.41
2018-03-19T13:05:25.146Z,95904.34
2018-03-19T13:07:52.544Z,95891.72
2018-03-19T13:10:19.971Z,95898.22
2018-03-19T13:12:47.475Z,95896.91
2018-03-19T13:15:14.909Z,95894.81
2018-03-19T13:17:43.206Z,95897.92
2018-03-19T13:20:10.575Z,95895.34
2018-03-19T13:22:38.121Z,95890.90
2018-03-19T13:25:05.551Z,95888.88
2018-03-19T13:27:32.960Z,95889.62
2018-03-19T13:30:00.650Z,95890.73
2018-03-19T13:32:28.287Z,95888.34
2018-03-19T13:34:55.790Z,95886.53
2018-03-19T13:37:23.441Z,95888.45
2018-03-19T13:39:50.864Z,95889.78
2018-03-19T13:42:18.447Z,95890.58
2018-03-19T13:44:45.916Z,95880.84
2018-03-19T13:47:13.395Z,95878.02
2018-03-19T13:49:40.830Z,95867.30
2018-03-19T13:52:08.413Z,95872.42
2018-03-19T13:54:35.804Z,95877.23
2018-03-19T13:57:03.220Z,95877.23
2018-03-19T13:59:30.720Z,95874.03
2018-03-19T14:01:58.157Z,95875.27
2018-03-19T14:04:25.630Z,95875.35
2018-03-19T14:06:54.036Z,95876.77
2018-03-19T14:09:21.442Z,95881.78
2018-03-19T14:11:48.925Z,95880.89
2018-03-19T14:14:16.344Z,95879.75
2018-03-19T14:16:43.863Z,95870.05
2018-03-19T14:19:11.280Z,95869.48
2018-03-19T14:21:38.858Z,95860.19
2018-03-19T14:24:06.310Z,95864.65
2018-03-19T14:26:33.816Z,95860.36
2018-03-19T14:29:01.205Z,95860.87
2018-03-19T14:31:28.896Z,95861.75
2018-03-19T14:33:56.367Z,95857.09
2018-03-19T14:36:23.761Z,95868.13
2018-03-19T14:38:51.162Z,95857.33
2018-03-19T14:41:19.501Z,95851.30
2018-03-19T14:43:46.993Z,95859.00
2018-03-19T14:46:14.474Z,95853.16
2018-03-19T14:48:41.986Z,95850.69
2018-03-19T14:51:09.618Z,95846.61
2018-03-19T14:53:37.058Z,95844.11
2018-03-19T14:56:04.482Z,95844.00
2018-03-19T14:58:31.951Z,95835.79
2018-03-19T15:00:59.440Z,95843.62
2018-03-19T15:03:26.927Z,95841.14
2018-03-19T15:05:54.457Z,95844.73
2018-03-19T15:08:21.865Z,95840.52
2018-03-19T15:10:49.313Z,95846.72
2018-03-19T15:13:16.724Z,95836.83
2018-03-19T15:15:44.266Z,95839.53
2018-03-19T15:18:11.872Z,95839.23
2018-03-19T15:20:39.446Z,95846.66
2018-03-19T15:23:06.924Z,95843.38
2018-03-19T15:25:34.458Z,95847.94
2018-03-19T15:28:02.070Z,95847.06
2018-03-19T15:30:29.509Z,95840.50
2018-03-19T15:32:56.958Z,95839.31
2018-03-19T15:35:24.370Z,95844.92
2018-03-19T15:37:51.809Z,95850.64
2018-03-19T15:40:19.303Z,95843.53
2018-03-19T15:42:46.736Z,95843.25
2018-03-19T15:45:14.142Z,95835.38
2018-03-19T15:47:41.571Z,95845.09
2018-03-19T15:50:09.415Z,95844.38
2018-03-19T15:52:36.858Z,95842.96
2018-03-19T15:55:04.362Z,95840.03
2018-03-19T15:57:31.950Z,95843.70
2018-03-19T15:59:59.422Z,95849.55
2018-03-19T16:02:27.136Z,95849.81
2018-03-19T16:04:54.648Z,95854.74
2018-03-19T16:07:22.175Z,95847.04
2018-03-19T16:09:49.610Z,95866.00
2018-03-19T16:12:17.073Z,95846.95
2018-03-19T16:14:44.447Z,95859.80
2018-03-19T16:17:11.875Z,95863.22
2018-03-19T16:19:39.369Z,95861.97
2018-03-19T16:22:06.827Z,95862.30
2018-03-19T16:24:34.307Z,95872.64
2018-03-19T16:27:01.738Z,95862.70
2018-03-19T16:29:29.327Z,95868.67
2018-03-19T16:31:56.778Z,95870.71
2018-03-19T16:34:24.824Z,95864.77
2018-03-19T16:36:52.293Z,95882.13
2018-03-19T16:39:19.789Z,95879.61
2018-03-19T16:41:47.246Z,95885.95
2018-03-19T16:44:14.772Z,95885.48
2018-03-19T16:46:42.217Z,95889.33
2018-03-19T16:49:09.789Z,95885.61
2018-03-19T16:51:37.766Z,95886.20
2018-03-19T16:54:05.247Z,95883.89
2018-03-19T16:56:32.659Z,95893.00
2018-03-19T16:59:00.188Z,95899.08
2018-03-19T17:01:27.600Z,95901.41
2018-03-19T17:03:54.996Z,95892.67
2018-03-19T17:06:22.489Z,95901.14
2018-03-19T17:08:49.944Z,95906.77
2018-03-19T17:11:17.403Z,95906.59
2018-03-19T17:13:44.882Z,95909.02
2018-03-19T17:16:12.321Z,95910.14
2018-03-19T17:18:39.765Z,95916.15
2018-03-19T17:21:07.208Z,95924.52
2018-03-19T17:23:34.722Z,95924.08
2018-03-19T17:26:02.187Z,95920.70
2018-03-19T17:28:29.631Z,95929.85
2018-03-19T17:30:57.146Z,95931.49
2018-03-19T17:33:24.579Z,95931.17
2018-03-19T17:35:52.089Z,95945.28
2018-03-19T17:38:19.537Z,95942.05
2018-03-19T17:40:47.009Z,95952.55
2018-03-19T17:43:14.432Z,95952.30
2018-03-19T17:45:41.909Z,95960.41
2018-03-19T17:48:09.357Z,95952.56
2018-03-19T17:50:36.774Z,95968.00
2018-03-19T17:53:04.256Z,95968.26
2018-03-19T17:55:31.729Z,95975.41
2018-03-19T17:57:59.159Z,95974.84
2018-03-19T18:00:26.611Z,95979.88
2018-03-19T18:02:54.088Z,95982.95
2018-03-19T18:05:21.666Z,95981.97
2018-03-19T18:07:49.117Z,95991.91
2018-03-19T18:10:16.611Z,95991.84
2018-03-19T18:12:44.096Z,95996.59
2018-03-19T18:15:11.560Z,95998.19
2018-03-19T18:17:40.132Z,96007.67
2018-03-19T18:20:07.708Z,96002.41
2018-03-19T18:22:35.222Z,96004.09
2018-03-19T18:25:02.683Z,96009.77
2018-03-19T18:27:30.114Z,96011.48
2018-03-19T18:29:57.549Z,96012.26
2018-03-19T18:32:24.985Z,96025.62
2018-03-19T18:34:52.433Z,96020.75
2018-03-19T18:37:19.891Z,96027.27
2018-03-19T18:39:47.390Z,96030.02
2018-03-19T18:42:15.581Z,96032.05
2018-03-19T18:44:43.132Z,96030.34
2018-03-19T18:47:11.204Z,96032.08
2018-03-19T18:49:38.637Z,96033.38
2018-03-19T18:52:06.103Z,96038.14
2018-03-19T18:54:33.545Z,96031.02
2018-03-19T18:57:01.019Z,96042.33
2018-03-19T18:59:28.979Z,96042.83
2018-03-19T19:01:56.463Z,96046.85
2018-03-19T19:04:23.999Z,96049.39
2018-03-19T19:06:51.520Z,96050.97
2018-03-19T19:09:18.978Z,96052.20
2018-03-19T19:11:46.421Z,96054.66
2018-03-19T19:14:14.835Z,96049.59
2018-03-19T19:16:42.271Z,96049.03
2018-03-19T19:19:09.801Z,96052.50
2018-03-19T19:21:37.253Z,96047.89
2018-03-19T19:24:04.709Z,96057.42
2018-03-19T19:26:32.216Z,96059.44
2018-03-19T19:28:59.703Z,96059.33
2018-03-19T19:31:27.162Z,96063.15
2018-03-19T19:33:54.700Z,96060.98
2018-03-19T19:36:22.104Z,96062.09
2018-03-19T19:38:49.517Z,96056.68
2018-03-19T19:41:17.244Z,96058.42
2018-03-19T19:43:44.670Z,96062.52
2018-03-19T19:46:12.139Z,96062.59
2018-03-19T19:48:39.577Z,96065.17
2018-03-19T19:51:07.052Z,96060.19
2018-03-19T19:53:34.450Z,96063.81
2018-03-19T19:56:02.071Z,96072.97
2018-03-19T19:58:29.552Z,96071.61
2018-03-19T20:00:56.954Z,96077.89
2018-03-19T20:03:24.739Z,96083.78
2018-03-19T20:05:52.134Z,96077.50
2018-03-19T20:08:19.567Z,96083.03
2018-03-19T20:10:47.115Z,96081.31
2018-03-19T20:13:14.614Z,96078.31
2018-03-19T20:15:42.568Z,96080.84
2018-03-19T20:18:10.420Z,96088.53
2018-03-19T20:20:37.947Z,96086.13
2018-03-19T20:23:05.400Z,96088.31
2018-03-19T20:25:32.862Z,96086.68
2018-03-19T20:28:01.214Z,96085.18
2018-03-19T20:30:28.769Z,96082.81
2018-03-19T20:32:56.248Z,96086.92
2018-03-19T20:35:23.662Z,96089.84
2018-03-19T20:37:51.106Z,96101.24
2018-03-19T20:40:18.573Z,96099.20
2018-03-19T20:42:46.026Z,96090.18
2018-03-19T20:45:13.545Z,96097.58
2018-03-19T20:47:40.987Z,96090.66
2018-03-19T20:50:08.516Z,96096.58
2018-03-19T20:52:35.943Z,96096.40
2018-03-19T20:55:03.328Z,96098.84
2018-03-19T20:57:30.798Z,96104.16
2018-03-19T20:59:58.285Z,96096.09
2018-03-19T21:02:25.796Z,96101.56
2018-03-19T21:04:53.221Z,96097.48
2018-03-19T21:07:20.641Z,96101.41
2018-03-19T21:09:48.056Z,96100.94
2018-03-19T21:12:15.509Z,96096.83
2018-03-19T21:14:43.086Z,96095.61
2018-03-19T21:17:10.539Z,96095.42
2018-03-19T21:19:38.000Z,96104.17
2018-03-19T21:22:05.404Z,96093.06
2018-03-19T21:24:32.808Z,96098.41
2018-03-19T21:27:00.246Z,96108.49
2018-03-19T21:29:27.716Z,96109.32
2018-03-19T21:31:55.285Z,96106.36
2018-03-19T21:34:22.863Z,96098.22
2018-03-19T21:36:50.329Z,96088.34
2018-03-19T21:39:17.857Z,96105.50
2018-03-19T21:41:45.302Z,96108.34
2018-03-19T21:44:12.846Z,96105.78
2018-03-19T21:46:40.292Z,96100.30
2018-03-19T21:49:07.767Z,96101.30
2018-03-19T21:51:35.187Z,96101.63
2018-03-19T21:54:02.656Z,96102.69
2018-03-19T21:56:30.089Z,96097.10
2018-03-19T21:58:57.559Z,96105.00
2018-03-19T22:01:25.056Z,96112.89
2018-03-19T22:03:52.531Z,96122.42
2018-03-19T22:06:20.025Z,96101.34
2018-03-19T22:08:47.453Z,96107.55
2018-03-19T22:11:15.731Z,96105.66
2018-03-19T22:13:43.207Z,96109.43
2018-03-19T22:16:10.682Z,96107.42
2018-03-19T22:18:38.226Z,96114.02
2018-03-19T22:21:05.744Z,96118.84
2018-03-19T22:23:33.211Z,96112.68
2018-03-19T22:26:00.680Z,96114.56
2018-03-19T22:28:28.073Z,96118.86
2018-03-19T22:30:55.501Z,96111.33
2018-03-19T22:33:23.507Z,96112.74
2018-03-19T22:35:50.947Z,96119.75
2018-03-19T22:38:18.385Z,96119.16
2018-03-19T22:40:45.825Z,96119.22
2018-03-19T22:43:13.805Z,96115.94
2018-03-19T22:45:41.262Z,96120.57
2018-03-19T22:48:08.669Z,96121.30
2018-03-19T22:50:36.245Z,96129.53
2018-03-19T22:53:04.125Z,96129.53
2018-03-19T22:55:32.425Z,96124.95
2018-03-19T22:58:00.496Z,96129.58
2018-03-19T23:00:27.924Z,96125.82
2018-03-19T23:02:55.369Z,96127.35
2018-03-19T23:05:22.765Z,96129.66
2018-03-19T23:07:50.191Z,96125.16
2018-03-19T23:10:17.743Z,96133.82
2018-03-19T23:12:45.152Z,96133.66
2018-03-19T23:15:12.618Z,96133.19
2018-03-19T23:17:40.057Z,96126.41
